createdAt,value
2023-08-08T00:00:51.858Z,1011.39
2023-08-08T00:01:51.817Z,1011.38
2023-08-08T00:02:51.844Z,1011.39
2023-08-08T00:03:51.852Z,1011.38
2023-08-08T00:04:51.805Z,1011.39
2023-08-08T00:05:51.811Z,1011.38
2023-08-08T00:06:51.810Z,1011.35
2023-08-08T00:07:51.813Z,1011.37
2023-08-08T00:08:51.810Z,1011.38
2023-08-08T00:09:51.801Z,1011.36
2023-08-08T00:10:51.804Z,1011.41
2023-08-08T00:11:51.827Z,1011.40
2023-08-08T00:12:51.799Z,1011.39
2023-08-08T00:13:51.815Z,1011.29
2023-08-08T00:14:51.787Z,1011.33
2023-08-08T00:15:51.812Z,1011.34
2023-08-08T00:16:51.783Z,1011.34
2023-08-08T00:17:51.813Z,1011.34
2023-08-08T00:18:51.794Z,1011.30
2023-08-08T00:19:51.814Z,1011.29
2023-08-08T00:20:51.781Z,1011.31
2023-08-08T00:21:51.839Z,1011.25
2023-08-08T00:22:51.779Z,1011.26
2023-08-08T00:23:51.785Z,1011.25
2023-08-08T00:24:51.774Z,1011.22
2023-08-08T00:25:51.768Z,1011.23
2023-08-08T00:26:51.765Z,1011.22
2023-08-08T00:27:51.764Z,1011.18
2023-08-08T00:28:51.760Z,1011.20
2023-08-08T00:29:51.814Z,1011.18
2023-08-08T00:30:51.799Z,1011.22
2023-08-08T00:31:51.774Z,1011.21
2023-08-08T00:32:51.766Z,1011.19
2023-08-08T00:33:51.764Z,1011.15
2023-08-08T00:34:51.767Z,1011.15
2023-08-08T00:35:51.766Z,1011.15
2023-08-08T00:36:51.760Z,1011.14
2023-08-08T00:37:51.758Z,1011.13
2023-08-08T00:38:51.748Z,1011.18
2023-08-08T00:39:51.742Z,1011.16
2023-08-08T00:40:51.742Z,1011.13
2023-08-08T00:41:51.747Z,1011.14
2023-08-08T00:42:51.747Z,1011.18
2023-08-08T00:43:51.746Z,1011.20
2023-08-08T00:44:51.741Z,1011.14
2023-08-08T00:45:51.755Z,1011.16
2023-08-08T00:46:51.817Z,1011.16
2023-08-08T00:47:51.766Z,1011.19
2023-08-08T00:48:51.728Z,1011.16
2023-08-08T00:49:51.728Z,1011.12
2023-08-08T00:50:51.753Z,1011.14
2023-08-08T00:51:51.721Z,1011.14
2023-08-08T00:52:51.725Z,1011.11
2023-08-08T00:53:51.732Z,1011.10
2023-08-08T00:54:51.721Z,1011.08
2023-08-08T00:55:51.723Z,1011.06
2023-08-08T00:56:51.714Z,1011.07
2023-08-08T00:57:51.720Z,1011.06
2023-08-08T00:58:51.881Z,1011.01
2023-08-08T00:59:51.712Z,1011.02
2023-08-08T01:00:51.769Z,1011.00
2023-08-08T01:01:51.772Z,1011.02
2023-08-08T01:02:51.803Z,1011.03
2023-08-08T01:03:51.725Z,1011.07
2023-08-08T01:04:51.703Z,1011.07
2023-08-08T01:05:51.706Z,1011.10
2023-08-08T01:06:51.700Z,1011.08
2023-08-08T01:07:51.716Z,1011.09
2023-08-08T01:08:51.730Z,1011.06
2023-08-08T01:09:51.713Z,1011.08
2023-08-08T01:10:51.705Z,1011.10
2023-08-08T01:11:51.692Z,1011.14
2023-08-08T01:12:51.692Z,1011.13
2023-08-08T01:13:51.683Z,1011.13
2023-08-08T01:14:51.689Z,1011.12
2023-08-08T01:15:51.709Z,1011.11
2023-08-08T01:16:51.741Z,1011.13
2023-08-08T01:17:51.882Z,1011.08
2023-08-08T01:18:51.673Z,1011.12
2023-08-08T01:19:51.680Z,1011.11
2023-08-08T01:20:51.682Z,1011.14
2023-08-08T01:21:51.665Z,1011.13
2023-08-08T01:22:51.704Z,1011.14
2023-08-08T01:23:51.674Z,1011.12
2023-08-08T01:24:51.663Z,1011.15
2023-08-08T01:25:51.674Z,1011.14
2023-08-08T01:26:51.668Z,1011.15
2023-08-08T01:27:51.666Z,1011.12
2023-08-08T01:28:51.659Z,1011.11
2023-08-08T01:29:51.669Z,1011.12
2023-08-08T01:30:51.681Z,1011.11
2023-08-08T01:31:51.656Z,1011.11
2023-08-08T01:32:51.698Z,1011.13
2023-08-08T01:33:51.668Z,1011.11
2023-08-08T01:34:51.646Z,1011.09
2023-08-08T01:35:51.654Z,1011.06
2023-08-08T01:36:51.663Z,1011.10
2023-08-08T01:37:51.634Z,1011.03
2023-08-08T01:38:51.648Z,1011.07
2023-08-08T01:39:51.678Z,1011.03
2023-08-08T01:40:51.643Z,1011.01
2023-08-08T01:41:51.659Z,1010.99
2023-08-08T01:42:51.634Z,1010.97
2023-08-08T01:43:51.622Z,1011.00
2023-08-08T01:44:51.635Z,1010.96
2023-08-08T01:45:51.733Z,1010.94
2023-08-08T01:46:51.635Z,1010.99
2023-08-08T01:47:51.689Z,1010.99
2023-08-08T01:48:51.637Z,1010.93
2023-08-08T01:49:51.639Z,1010.97
2023-08-08T01:50:51.619Z,1010.94
2023-08-08T01:51:51.655Z,1010.99
2023-08-08T01:52:51.669Z,1010.99
2023-08-08T01:53:51.613Z,1011.03
2023-08-08T01:54:51.618Z,1010.98
2023-08-08T01:55:51.600Z,1011.00
2023-08-08T01:56:51.603Z,1010.99
2023-08-08T01:57:51.610Z,1010.99
2023-08-08T01:58:51.610Z,1011.00
2023-08-08T01:59:51.610Z,1011.03
2023-08-08T02:00:51.605Z,1011.01
2023-08-08T02:01:51.633Z,1011.03
2023-08-08T02:02:51.637Z,1010.99
2023-08-08T02:03:51.638Z,1010.99
2023-08-08T02:04:51.603Z,1011.00
2023-08-08T02:05:51.603Z,1010.98
2023-08-08T02:06:51.607Z,1010.98
2023-08-08T02:07:51.588Z,1010.98
2023-08-08T02:08:51.591Z,1010.98
2023-08-08T02:09:51.583Z,1010.97
2023-08-08T02:10:51.581Z,1010.95
2023-08-08T02:11:51.579Z,1010.98
2023-08-08T02:12:51.590Z,1010.96
2023-08-08T02:13:51.571Z,1010.99
2023-08-08T02:14:51.573Z,1010.97
2023-08-08T02:15:51.615Z,1010.98
2023-08-08T02:16:51.601Z,1010.95
2023-08-08T02:17:51.636Z,1010.89
2023-08-08T02:18:51.564Z,1010.90
2023-08-08T02:19:51.582Z,1010.88
2023-08-08T02:20:51.569Z,1010.87
2023-08-08T02:21:51.575Z,1010.84
2023-08-08T02:22:51.567Z,1010.84
2023-08-08T02:23:51.552Z,1010.80
2023-08-08T02:24:51.562Z,1010.79
2023-08-08T02:25:51.555Z,1010.76
2023-08-08T02:26:51.554Z,1010.77
2023-08-08T02:27:51.561Z,1010.73
2023-08-08T02:28:51.553Z,1010.73
2023-08-08T02:29:51.541Z,1010.71
2023-08-08T02:30:51.550Z,1010.71
2023-08-08T02:31:51.615Z,1010.70
2023-08-08T02:32:51.625Z,1010.68
2023-08-08T02:33:51.556Z,1010.65
2023-08-08T02:34:51.544Z,1010.68
2023-08-08T02:35:51.532Z,1010.66
2023-08-08T02:36:51.541Z,1010.60
2023-08-08T02:37:51.544Z,1010.63
2023-08-08T02:38:51.534Z,1010.61
2023-08-08T02:39:51.536Z,1010.58
2023-08-08T02:40:51.564Z,1010.61
2023-08-08T02:41:51.523Z,1010.64
2023-08-08T02:42:51.528Z,1010.63
2023-08-08T02:43:51.531Z,1010.58
2023-08-08T02:44:51.526Z,1010.59
2023-08-08T02:45:51.550Z,1010.58
2023-08-08T02:46:51.518Z,1010.52
2023-08-08T02:47:51.588Z,1010.57
2023-08-08T02:48:51.505Z,1010.57
2023-08-08T02:49:51.506Z,1010.51
2023-08-08T02:50:51.511Z,1010.50
2023-08-08T02:51:51.511Z,1010.48
2023-08-08T02:52:51.504Z,1010.50
2023-08-08T02:53:51.518Z,1010.47
2023-08-08T02:54:51.502Z,1010.47
2023-08-08T02:55:51.523Z,1010.44
2023-08-08T02:56:51.505Z,1010.43
2023-08-08T02:57:51.498Z,1010.40
2023-08-08T02:58:51.493Z,1010.40
2023-08-08T02:59:51.491Z,1010.40
2023-08-08T03:00:51.488Z,1010.43
2023-08-08T03:01:51.488Z,1010.43
2023-08-08T03:02:51.499Z,1010.41
2023-08-08T03:03:51.534Z,1010.45
2023-08-08T03:04:51.489Z,1010.46
2023-08-08T03:05:51.494Z,1010.45
2023-08-08T03:06:51.479Z,1010.44
2023-08-08T03:07:51.474Z,1010.43
2023-08-08T03:08:51.480Z,1010.45
2023-08-08T03:09:51.491Z,1010.53
2023-08-08T03:10:51.474Z,1010.49
2023-08-08T03:11:51.477Z,1010.44
2023-08-08T03:12:51.482Z,1010.41
2023-08-08T03:13:51.464Z,1010.41
2023-08-08T03:14:51.482Z,1010.39
2023-08-08T03:15:51.475Z,1010.35
2023-08-08T03:16:51.477Z,1010.36
2023-08-08T03:17:51.497Z,1010.32
2023-08-08T03:18:51.464Z,1010.24
2023-08-08T03:19:51.499Z,1010.29
2023-08-08T03:20:51.454Z,1010.25
2023-08-08T03:21:51.527Z,1010.27
2023-08-08T03:22:51.462Z,1010.24
2023-08-08T03:23:51.449Z,1010.30
2023-08-08T03:24:51.441Z,1010.27
2023-08-08T03:25:51.466Z,1010.29
2023-08-08T03:26:51.443Z,1010.25
2023-08-08T03:27:51.437Z,1010.27
2023-08-08T03:28:51.497Z,1010.25
2023-08-08T03:29:51.444Z,1010.25
2023-08-08T03:30:51.432Z,1010.25
2023-08-08T03:31:51.431Z,1010.24
2023-08-08T03:32:51.465Z,1010.28
2023-08-08T03:33:51.451Z,1010.25
2023-08-08T03:34:51.433Z,1010.25
2023-08-08T03:35:51.456Z,1010.23
2023-08-08T03:36:51.416Z,1010.24
2023-08-08T03:37:51.415Z,1010.27
2023-08-08T03:38:51.425Z,1010.29
2023-08-08T03:39:51.410Z,1010.25
2023-08-08T03:40:51.408Z,1010.26
2023-08-08T03:41:51.429Z,1010.23
2023-08-08T03:42:51.418Z,1010.26
2023-08-08T03:43:51.403Z,1010.23
2023-08-08T03:44:51.405Z,1010.24
2023-08-08T03:45:51.402Z,1010.27
2023-08-08T03:46:53.529Z,1010.28
2023-08-08T03:47:51.498Z,1010.24
2023-08-08T03:48:54.293Z,1010.25
2023-08-08T03:49:51.393Z,1010.25
2023-08-08T03:50:51.401Z,1010.23
2023-08-08T03:51:51.424Z,1010.21
2023-08-08T03:52:51.388Z,1010.23
2023-08-08T03:53:51.389Z,1010.21
2023-08-08T03:54:51.406Z,1010.19
2023-08-08T03:55:51.394Z,1010.19
2023-08-08T03:56:51.436Z,1010.19
2023-08-08T03:57:51.396Z,1010.16
2023-08-08T03:58:51.378Z,1010.19
2023-08-08T03:59:51.378Z,1010.15
2023-08-08T04:00:51.412Z,1010.15
2023-08-08T04:01:51.420Z,1010.17
2023-08-08T04:02:51.458Z,1010.17
2023-08-08T04:03:51.464Z,1010.19
2023-08-08T04:04:51.359Z,1010.18
2023-08-08T04:05:51.378Z,1010.22
2023-08-08T04:06:51.365Z,1010.19
2023-08-08T04:07:51.365Z,1010.21
2023-08-08T04:08:51.389Z,1010.23
2023-08-08T04:09:51.368Z,1010.20
2023-08-08T04:10:51.350Z,1010.21
2023-08-08T04:11:51.393Z,1010.24
2023-08-08T04:12:51.354Z,1010.23
2023-08-08T04:13:51.470Z,1010.24
2023-08-08T04:14:51.400Z,1010.28
2023-08-08T04:15:51.345Z,1010.29
2023-08-08T04:16:51.399Z,1010.26
2023-08-08T04:17:51.424Z,1010.25
2023-08-08T04:18:51.349Z,1010.24
2023-08-08T04:19:51.336Z,1010.26
2023-08-08T04:20:51.359Z,1010.29
2023-08-08T04:21:51.327Z,1010.29
2023-08-08T04:22:51.325Z,1010.25
2023-08-08T04:23:51.341Z,1010.29
2023-08-08T04:24:51.350Z,1010.28
2023-08-08T04:25:51.325Z,1010.28
2023-08-08T04:26:51.332Z,1010.31
2023-08-08T04:27:51.318Z,1010.26
2023-08-08T04:28:51.322Z,1010.35
2023-08-08T04:29:51.330Z,1010.42
2023-08-08T04:30:51.356Z,1010.42
2023-08-08T04:31:51.307Z,1010.37
2023-08-08T04:32:51.347Z,1010.32
2023-08-08T04:33:51.304Z,1010.28
2023-08-08T04:34:51.302Z,1010.23
2023-08-08T04:35:51.299Z,1010.24
2023-08-08T04:36:51.310Z,1010.29
2023-08-08T04:37:51.309Z,1010.35
2023-08-08T04:38:51.298Z,1010.39
2023-08-08T04:39:51.317Z,1010.39
2023-08-08T04:40:51.297Z,1010.38
2023-08-08T04:41:51.299Z,1010.39
2023-08-08T04:42:51.289Z,1010.39
2023-08-08T04:43:51.289Z,1010.37
2023-08-08T04:44:51.314Z,1010.37
2023-08-08T04:45:51.298Z,1010.39
2023-08-08T04:46:51.369Z,1010.37
2023-08-08T04:47:51.370Z,1010.32
2023-08-08T04:48:51.279Z,1010.35
2023-08-08T04:49:51.293Z,1010.34
2023-08-08T04:50:51.312Z,1010.39
2023-08-08T04:51:51.276Z,1010.33
2023-08-08T04:52:51.275Z,1010.36
2023-08-08T04:53:51.280Z,1010.34
2023-08-08T04:54:51.268Z,1010.32
2023-08-08T04:55:51.268Z,1010.34
2023-08-08T04:56:51.280Z,1010.32
2023-08-08T04:57:51.260Z,1010.28
2023-08-08T04:58:51.260Z,1010.31
2023-08-08T04:59:51.260Z,1010.30
2023-08-08T05:00:51.326Z,1010.28
2023-08-08T05:01:51.362Z,1010.24
2023-08-08T05:02:51.311Z,1010.27
2023-08-08T05:03:53.747Z,1010.31
2023-08-08T05:04:51.239Z,1010.30
2023-08-08T05:05:51.245Z,1010.28
2023-08-08T05:06:51.244Z,1010.30
2023-08-08T05:07:51.241Z,1010.31
2023-08-08T05:08:51.238Z,1010.30
2023-08-08T05:09:51.250Z,1010.30
2023-08-08T05:10:51.248Z,1010.28
2023-08-08T05:11:51.241Z,1010.30
2023-08-08T05:12:51.255Z,1010.29
2023-08-08T05:13:51.235Z,1010.29
2023-08-08T05:14:51.234Z,1010.27
2023-08-08T05:15:51.232Z,1010.25
2023-08-08T05:16:51.284Z,1010.22
2023-08-08T05:17:51.413Z,1010.24
2023-08-08T05:18:51.226Z,1010.21
2023-08-08T05:19:51.221Z,1010.24
2023-08-08T05:20:51.217Z,1010.24
2023-08-08T05:21:52.678Z,1010.22
2023-08-08T05:22:51.248Z,1010.24
2023-08-08T05:23:51.207Z,1010.21
2023-08-08T05:24:51.228Z,1010.24
2023-08-08T05:25:51.215Z,1010.27
2023-08-08T05:26:51.205Z,1010.23
2023-08-08T05:27:51.214Z,1010.23
2023-08-08T05:28:51.205Z,1010.18
2023-08-08T05:29:51.208Z,1010.22
2023-08-08T05:30:51.310Z,1010.21
2023-08-08T05:31:51.193Z,1010.22
2023-08-08T05:32:51.232Z,1010.20
2023-08-08T05:33:51.232Z,1010.19
2023-08-08T05:34:51.205Z,1010.16
2023-08-08T05:35:51.189Z,1010.18
2023-08-08T05:37:01.897Z,1010.12
2023-08-08T05:37:51.193Z,1010.16
2023-08-08T05:38:51.198Z,1010.15
2023-08-08T05:39:51.193Z,1010.16
2023-08-08T05:40:51.188Z,1010.13
2023-08-08T05:41:51.179Z,1010.12
2023-08-08T05:42:51.207Z,1010.10
2023-08-08T05:43:51.173Z,1010.16
2023-08-08T05:44:51.173Z,1010.14
2023-08-08T05:45:51.227Z,1010.10
2023-08-08T05:46:51.169Z,1010.12
2023-08-08T05:47:51.253Z,1010.11
2023-08-08T05:48:51.172Z,1010.07
2023-08-08T05:49:51.186Z,1010.11
2023-08-08T05:50:51.174Z,1010.10
2023-08-08T05:51:51.174Z,1010.05
2023-08-08T05:52:51.160Z,1010.07
2023-08-08T05:53:51.171Z,1010.06
2023-08-08T05:54:51.228Z,1010.07
2023-08-08T05:55:51.157Z,1010.07
2023-08-08T05:56:51.157Z,1010.12
2023-08-08T05:57:51.153Z,1010.13
2023-08-08T05:58:51.151Z,1010.13
2023-08-08T05:59:51.174Z,1010.16
2023-08-08T06:00:51.146Z,1010.13
2023-08-08T06:01:51.227Z,1010.17
2023-08-08T06:02:51.270Z,1010.17
2023-08-08T06:03:51.297Z,1010.20
2023-08-08T06:04:51.142Z,1010.18
2023-08-08T06:05:51.294Z,1010.18
2023-08-08T06:06:51.154Z,1010.23
2023-08-08T06:07:51.143Z,1010.16
2023-08-08T06:08:51.128Z,1010.17
2023-08-08T06:09:51.139Z,1010.22
2023-08-08T06:10:51.142Z,1010.23
2023-08-08T06:11:51.141Z,1010.24
2023-08-08T06:12:51.126Z,1010.24
2023-08-08T06:13:51.134Z,1010.25
2023-08-08T06:14:51.133Z,1010.25
2023-08-08T06:15:51.237Z,1010.28
2023-08-08T06:16:51.124Z,1010.29
2023-08-08T06:17:51.201Z,1010.34
2023-08-08T06:18:51.176Z,1010.32
2023-08-08T06:19:51.139Z,1010.35
2023-08-08T06:20:51.114Z,1010.39
2023-08-08T06:21:51.249Z,1010.32
2023-08-08T06:22:51.137Z,1010.28
2023-08-08T06:23:51.149Z,1010.36
2023-08-08T06:24:51.120Z,1010.33
2023-08-08T06:25:51.118Z,1010.30
2023-08-08T06:26:51.105Z,1010.38
2023-08-08T06:27:51.137Z,1010.32
2023-08-08T06:28:51.105Z,1010.40
2023-08-08T06:29:51.103Z,1010.31
2023-08-08T06:30:51.113Z,1010.34
2023-08-08T06:31:51.151Z,1010.39
2023-08-08T06:32:51.162Z,1010.43
2023-08-08T06:33:51.119Z,1010.46
2023-08-08T06:34:51.101Z,1010.41
2023-08-08T06:35:51.104Z,1010.43
2023-08-08T06:36:51.117Z,1010.42
2023-08-08T06:37:51.122Z,1010.41
2023-08-08T06:38:51.096Z,1010.49
2023-08-08T06:39:51.097Z,1010.42
2023-08-08T06:40:51.089Z,1010.36
2023-08-08T06:41:51.207Z,1010.39
2023-08-08T06:42:51.189Z,1010.41
2023-08-08T06:43:51.092Z,1010.36
2023-08-08T06:44:51.082Z,1010.35
2023-08-08T06:45:51.162Z,1010.39
2023-08-08T06:46:51.108Z,1010.41
2023-08-08T06:47:51.106Z,1010.36
2023-08-08T06:48:51.079Z,1010.29
2023-08-08T06:49:51.078Z,1010.37
2023-08-08T06:50:51.079Z,1010.36
2023-08-08T06:51:51.099Z,1010.40
2023-08-08T06:52:51.082Z,1010.38
2023-08-08T06:53:51.098Z,1010.36
2023-08-08T06:54:51.072Z,1010.39
2023-08-08T06:55:51.077Z,1010.44
2023-08-08T06:56:51.066Z,1010.40
2023-08-08T06:57:51.072Z,1010.42
2023-08-08T06:58:51.068Z,1010.40
2023-08-08T06:59:51.066Z,1010.42
2023-08-08T07:00:51.060Z,1010.43
2023-08-08T07:01:51.112Z,1010.40
2023-08-08T07:02:51.161Z,1010.40
2023-08-08T07:03:51.071Z,1010.36
2023-08-08T07:04:51.099Z,1010.36
2023-08-08T07:05:51.061Z,1010.34
2023-08-08T07:06:51.065Z,1010.38
2023-08-08T07:07:51.052Z,1010.37
2023-08-08T07:08:51.053Z,1010.34
2023-08-08T07:09:51.073Z,1010.31
2023-08-08T07:10:51.053Z,1010.31
2023-08-08T07:11:51.058Z,1010.28
2023-08-08T07:12:51.052Z,1010.29
2023-08-08T07:13:51.049Z,1010.25
2023-08-08T07:14:51.048Z,1010.24
2023-08-08T07:15:51.069Z,1010.25
2023-08-08T07:16:51.045Z,1010.27
2023-08-08T07:17:51.089Z,1010.30
2023-08-08T07:18:53.549Z,1010.24
2023-08-08T07:19:51.036Z,1010.22
2023-08-08T07:20:51.040Z,1010.19
2023-08-08T07:21:51.042Z,1010.25
2023-08-08T07:22:51.034Z,1010.21
2023-08-08T07:23:51.042Z,1010.23
2023-08-08T07:24:51.050Z,1010.20
2023-08-08T07:25:51.941Z,1010.20
2023-08-08T07:26:51.035Z,1010.27
2023-08-08T07:27:51.038Z,1010.21
2023-08-08T07:28:51.029Z,1010.20
2023-08-08T07:29:51.035Z,1010.28
2023-08-08T07:30:51.106Z,1010.24
2023-08-08T07:31:51.024Z,1010.22
2023-08-08T07:32:51.067Z,1010.24
2023-08-08T07:33:51.023Z,1010.22
2023-08-08T07:34:51.024Z,1010.27
2023-08-08T07:35:51.023Z,1010.27
2023-08-08T07:36:51.025Z,1010.29
2023-08-08T07:37:51.016Z,1010.29
2023-08-08T07:38:51.013Z,1010.28
2023-08-08T07:39:51.017Z,1010.25
2023-08-08T07:40:51.005Z,1010.29
2023-08-08T07:41:51.075Z,1010.24
2023-08-08T07:42:50.998Z,1010.20
2023-08-08T07:43:51.010Z,1010.28
2023-08-08T07:44:51.010Z,1010.23
2023-08-08T07:45:51.004Z,1010.14
2023-08-08T07:46:51.055Z,1010.18
2023-08-08T07:47:51.173Z,1010.23
2023-08-08T07:48:50.994Z,1010.25
2023-08-08T07:49:51.009Z,1010.24
2023-08-08T07:50:50.989Z,1010.24
2023-08-08T07:51:50.992Z,1010.22
2023-08-08T07:52:50.990Z,1010.22
2023-08-08T07:53:50.988Z,1010.20
2023-08-08T07:54:51.002Z,1010.19
2023-08-08T07:55:50.990Z,1010.21
2023-08-08T07:56:50.988Z,1010.13
2023-08-08T07:57:51.063Z,1010.14
2023-08-08T07:58:50.980Z,1010.12
2023-08-08T07:59:50.982Z,1010.16
2023-08-08T08:00:51.011Z,1010.13
2023-08-08T08:01:51.004Z,1010.14
2023-08-08T08:02:51.067Z,1010.15
2023-08-08T08:03:51.077Z,1010.20
2023-08-08T08:04:50.978Z,1010.17
2023-08-08T08:05:50.979Z,1010.17
2023-08-08T08:06:50.980Z,1010.18
2023-08-08T08:07:50.994Z,1010.22
2023-08-08T08:08:50.965Z,1010.19
2023-08-08T08:09:50.978Z,1010.19
2023-08-08T08:10:51.000Z,1010.17
2023-08-08T08:11:50.969Z,1010.20
2023-08-08T08:12:50.963Z,1010.22
2023-08-08T08:13:51.017Z,1010.19
2023-08-08T08:14:50.975Z,1010.19
2023-08-08T08:15:50.964Z,1010.20
2023-08-08T08:16:51.040Z,1010.22
2023-08-08T08:17:50.992Z,1010.22
2023-08-08T08:18:50.959Z,1010.26
2023-08-08T08:19:50.953Z,1010.18
2023-08-08T08:20:50.979Z,1010.17
2023-08-08T08:21:50.964Z,1010.15
2023-08-08T08:22:50.959Z,1010.17
2023-08-08T08:23:50.953Z,1010.17
2023-08-08T08:24:50.956Z,1010.16
2023-08-08T08:25:50.958Z,1010.19
2023-08-08T08:26:50.950Z,1010.12
2023-08-08T08:27:50.967Z,1010.12
2023-08-08T08:28:50.951Z,1010.11
2023-08-08T08:29:50.982Z,1010.20
2023-08-08T08:30:50.997Z,1010.17
2023-08-08T08:31:50.954Z,1010.17
2023-08-08T08:32:51.083Z,1010.13
2023-08-08T08:33:51.003Z,1010.14
2023-08-08T08:34:50.940Z,1010.18
2023-08-08T08:35:50.936Z,1010.16
2023-08-08T08:36:50.934Z,1010.07
2023-08-08T08:37:50.948Z,1010.13
2023-08-08T08:38:50.931Z,1010.19
2023-08-08T08:39:50.944Z,1010.13
2023-08-08T08:40:50.940Z,1010.13
2023-08-08T08:41:50.940Z,1010.17
2023-08-08T08:42:50.936Z,1010.14
2023-08-08T08:43:50.935Z,1010.18
2023-08-08T08:44:50.928Z,1010.22
2023-08-08T08:45:50.974Z,1010.18
2023-08-08T08:46:51.018Z,1010.19
2023-08-08T08:47:50.977Z,1010.22
2023-08-08T08:48:50.920Z,1010.17
2023-08-08T08:49:50.926Z,1010.17
2023-08-08T08:50:50.923Z,1010.19
2023-08-08T08:51:50.985Z,1010.13
2023-08-08T08:52:50.917Z,1010.15
2023-08-08T08:53:50.925Z,1010.17
2023-08-08T08:54:50.916Z,1010.17
2023-08-08T08:55:50.908Z,1010.14
2023-08-08T08:56:50.910Z,1010.17
2023-08-08T08:57:50.911Z,1010.16
2023-08-08T08:58:50.906Z,1010.19
2023-08-08T08:59:50.927Z,1010.21
2023-08-08T09:00:50.929Z,1010.20
2023-08-08T09:01:50.923Z,1010.18
2023-08-08T09:02:50.980Z,1010.22
2023-08-08T09:03:50.956Z,1010.15
2023-08-08T09:04:50.907Z,1010.17
2023-08-08T09:05:50.891Z,1010.15
2023-08-08T09:06:50.899Z,1010.13
2023-08-08T09:07:50.893Z,1010.10
2023-08-08T09:08:53.537Z,1010.14
2023-08-08T09:09:50.896Z,1010.11
2023-08-08T09:10:50.888Z,1010.12
2023-08-08T09:11:50.885Z,1010.13
2023-08-08T09:12:50.887Z,1010.18
2023-08-08T09:13:50.891Z,1010.17
2023-08-08T09:14:50.887Z,1010.15
2023-08-08T09:15:50.941Z,1010.14
2023-08-08T09:16:50.933Z,1010.12
2023-08-08T09:17:50.912Z,1010.13
2023-08-08T09:18:50.872Z,1010.12
2023-08-08T09:19:50.878Z,1010.10
2023-08-08T09:20:50.876Z,1010.13
2023-08-08T09:21:50.881Z,1010.11
2023-08-08T09:22:50.875Z,1010.11
2023-08-08T09:23:50.875Z,1010.13
2023-08-08T09:24:50.865Z,1010.15
2023-08-08T09:25:50.866Z,1010.13
2023-08-08T09:26:50.869Z,1010.09
2023-08-08T09:27:50.872Z,1010.10
2023-08-08T09:28:50.883Z,1010.14
2023-08-08T09:29:50.870Z,1010.14
2023-08-08T09:30:50.885Z,1010.11
2023-08-08T09:31:50.868Z,1010.10
2023-08-08T09:32:50.882Z,1010.09
2023-08-08T09:33:50.881Z,1010.11
2023-08-08T09:34:50.859Z,1010.06
2023-08-08T09:35:50.849Z,1010.06
2023-08-08T09:36:50.845Z,1010.13
2023-08-08T09:37:50.844Z,1010.12
2023-08-08T09:38:50.846Z,1010.07
2023-08-08T09:39:50.854Z,1010.09
2023-08-08T09:40:50.848Z,1010.09
2023-08-08T09:41:50.844Z,1010.06
2023-08-08T09:42:50.840Z,1010.06
2023-08-08T09:43:50.845Z,1010.06
2023-08-08T09:44:50.852Z,1010.04
2023-08-08T09:45:50.879Z,1010.09
2023-08-08T09:46:50.834Z,1010.07
2023-08-08T09:47:50.852Z,1010.13
2023-08-08T09:48:50.828Z,1010.10
2023-08-08T09:49:50.842Z,1010.15
2023-08-08T09:50:50.833Z,1010.10
2023-08-08T09:51:50.834Z,1010.06
2023-08-08T09:52:50.835Z,1010.11
2023-08-08T09:53:50.832Z,1010.11
2023-08-08T09:54:50.825Z,1010.12
2023-08-08T09:55:50.833Z,1010.11
2023-08-08T09:56:50.838Z,1010.15
2023-08-08T09:57:50.828Z,1010.13
2023-08-08T09:58:50.825Z,1010.15
2023-08-08T09:59:50.823Z,1010.16
2023-08-08T10:00:50.815Z,1010.14
2023-08-08T10:01:50.864Z,1010.13
2023-08-08T10:02:50.930Z,1010.15
2023-08-08T10:03:50.838Z,1010.22
2023-08-08T10:04:50.809Z,1010.17
2023-08-08T10:05:50.823Z,1010.12
2023-08-08T10:06:50.818Z,1010.12
2023-08-08T10:07:50.808Z,1010.08
2023-08-08T10:08:50.809Z,1010.09
2023-08-08T10:09:50.812Z,1010.12
2023-08-08T10:10:50.801Z,1010.11
2023-08-08T10:11:50.797Z,1010.25
2023-08-08T10:12:50.797Z,1010.20
2023-08-08T10:13:50.791Z,1010.13
2023-08-08T10:14:50.797Z,1010.23
2023-08-08T10:15:50.832Z,1010.18
2023-08-08T10:16:50.815Z,1010.17
2023-08-08T10:17:50.844Z,1010.12
2023-08-08T10:18:50.791Z,1010.14
2023-08-08T10:19:50.800Z,1010.13
2023-08-08T10:20:50.804Z,1010.22
2023-08-08T10:21:50.920Z,1010.16
2023-08-08T10:22:50.786Z,1010.18
2023-08-08T10:23:50.819Z,1010.12
2023-08-08T10:24:50.796Z,1010.14
2023-08-08T10:25:50.800Z,1010.19
2023-08-08T10:26:50.784Z,1010.18
2023-08-08T10:27:50.782Z,1010.17
2023-08-08T10:28:50.775Z,1010.13
2023-08-08T10:29:50.776Z,1010.06
2023-08-08T10:30:50.782Z,1010.15
2023-08-08T10:31:50.902Z,1010.15
2023-08-08T10:32:50.814Z,1010.16
2023-08-08T10:33:50.784Z,1010.15
2023-08-08T10:34:50.766Z,1010.16
2023-08-08T10:35:50.773Z,1010.20
2023-08-08T10:36:50.790Z,1010.20
2023-08-08T10:37:50.870Z,1010.21
2023-08-08T10:39:06.798Z,1010.19
2023-08-08T10:39:50.769Z,1010.20
2023-08-08T10:40:50.766Z,1010.12
2023-08-08T10:41:50.777Z,1010.16
2023-08-08T10:42:50.758Z,1010.14
2023-08-08T10:43:50.759Z,1010.10
2023-08-08T10:44:50.757Z,1010.24
2023-08-08T10:45:59.794Z,1010.18
2023-08-08T10:46:50.753Z,1010.17
2023-08-08T10:47:50.807Z,1010.10
2023-08-08T10:48:50.743Z,1010.16
2023-08-08T10:49:50.747Z,1010.16
2023-08-08T10:50:50.746Z,1010.12
2023-08-08T10:51:50.745Z,1010.15
2023-08-08T10:52:50.745Z,1010.09
2023-08-08T10:53:50.753Z,1010.11
2023-08-08T10:54:50.739Z,1010.14
2023-08-08T10:55:50.747Z,1010.10
2023-08-08T10:56:50.753Z,1010.13
2023-08-08T10:57:50.728Z,1010.23
2023-08-08T10:58:50.731Z,1010.18
2023-08-08T10:59:50.778Z,1010.19
2023-08-08T11:00:50.741Z,1010.21
2023-08-08T11:01:50.740Z,1010.16
2023-08-08T11:02:50.789Z,1010.17
2023-08-08T11:03:50.746Z,1010.22
2023-08-08T11:04:50.748Z,1010.16
2023-08-08T11:05:50.711Z,1010.17
2023-08-08T11:06:50.712Z,1010.16
2023-08-08T11:07:50.700Z,1010.21
2023-08-08T11:08:50.695Z,1010.20
2023-08-08T11:09:50.718Z,1010.20
2023-08-08T11:10:50.705Z,1010.19
2023-08-08T11:11:50.699Z,1010.19
2023-08-08T11:12:50.692Z,1010.17
2023-08-08T11:13:50.701Z,1010.25
2023-08-08T11:14:50.686Z,1010.21
2023-08-08T11:15:50.702Z,1010.20
2023-08-08T11:16:50.676Z,1010.18
2023-08-08T11:17:50.736Z,1010.16
2023-08-08T11:18:51.066Z,1010.12
2023-08-08T11:19:50.681Z,1010.23
2023-08-08T11:20:50.997Z,1010.20
2023-08-08T11:21:50.703Z,1010.17
2023-08-08T11:22:50.654Z,1010.15
2023-08-08T11:23:50.657Z,1010.16
2023-08-08T11:24:50.659Z,1010.16
2023-08-08T11:26:17.459Z,1010.12
2023-08-08T11:26:50.645Z,1010.14
2023-08-08T11:27:50.645Z,1010.13
2023-08-08T11:28:50.633Z,1010.17
2023-08-08T11:29:50.635Z,1010.17
2023-08-08T11:30:50.709Z,1010.09
2023-08-08T11:31:50.622Z,1010.11
2023-08-08T11:33:15.351Z,1010.08
2023-08-08T11:33:50.636Z,1010.05
2023-08-08T11:34:50.644Z,1010.08
2023-08-08T11:35:50.613Z,1010.06
2023-08-08T11:36:50.611Z,1010.07
2023-08-08T11:37:50.614Z,1010.08
2023-08-08T11:38:50.637Z,1010.05
2023-08-08T11:39:50.607Z,1010.07
2023-08-08T11:40:50.605Z,1010.08
2023-08-08T11:41:50.720Z,1009.99
2023-08-08T11:42:50.596Z,1009.97
2023-08-08T11:43:50.592Z,1009.96
2023-08-08T11:44:50.581Z,1009.98
2023-08-08T11:45:50.587Z,1009.92
2023-08-08T11:46:50.614Z,1009.89
2023-08-08T11:47:50.597Z,1009.94
2023-08-08T11:48:50.611Z,1009.90
2023-08-08T11:49:50.568Z,1009.88
2023-08-08T11:50:50.570Z,1009.89
2023-08-08T11:51:50.560Z,1009.93
2023-08-08T11:52:50.561Z,1009.92
2023-08-08T11:53:50.556Z,1009.91
2023-08-08T11:54:50.737Z,1009.91
2023-08-08T11:55:50.626Z,1009.92
2023-08-08T11:56:50.543Z,1009.85
2023-08-08T11:57:50.580Z,1009.92
2023-08-08T11:58:50.548Z,1009.90
2023-08-08T11:59:50.540Z,1009.92
2023-08-08T12:00:50.550Z,1009.91
2023-08-08T12:01:50.537Z,1009.87
2023-08-08T12:02:50.562Z,1009.82
2023-08-08T12:03:50.574Z,1009.82
2023-08-08T12:04:50.514Z,1009.88
2023-08-08T12:05:50.527Z,1009.85